sensor_id;sensor_type;location;lat;lon;timestamp;pressure;altitude;pressure_sealevel;temperature;humidity
80938;BME280;70395;51.382;7.074;2023-11-19T00:00:50;99715.81;;;12.92;72.86
80938;BME280;70395;51.382;7.074;2023-11-19T00:03:17;99741.53;;;12.94;72.88
80938;BME280;70395;51.382;7.074;2023-11-19T00:05:43;99746.72;;;12.96;72.78
80938;BME280;70395;51.382;7.074;2023-11-19T00:08:10;99749.75;;;13.01;72.79
80938;BME280;70395;51.382;7.074;2023-11-19T00:10:36;99747.38;;;13.06;72.87
80938;BME280;70395;51.382;7.074;2023-11-19T00:13:01;99745.00;;;13.12;72.68
80938;BME280;70395;51.382;7.074;2023-11-19T00:15:28;99759.56;;;13.17;72.71
80938;BME280;70395;51.382;7.074;2023-11-19T00:17:54;99759.06;;;13.22;72.70
80938;BME280;70395;51.382;7.074;2023-11-19T00:20:20;99776.34;;;13.28;72.59
80938;BME280;70395;51.382;7.074;2023-11-19T00:22:49;99771.94;;;13.35;72.44
80938;BME280;70395;51.382;7.074;2023-11-19T00:25:19;99781.16;;;13.41;72.48
80938;BME280;70395;51.382;7.074;2023-11-19T00:27:45;99773.41;;;13.46;72.52
80938;BME280;70395;51.382;7.074;2023-11-19T00:30:11;99769.31;;;13.50;72.38
80938;BME280;70395;51.382;7.074;2023-11-19T00:32:37;99770.81;;;13.53;72.60
80938;BME280;70395;51.382;7.074;2023-11-19T00:35:06;99776.88;;;13.55;72.41
80938;BME280;70395;51.382;7.074;2023-11-19T00:37:33;99768.28;;;13.60;72.08
80938;BME280;70395;51.382;7.074;2023-11-19T00:39:58;99772.28;;;13.64;72.42
80938;BME280;70395;51.382;7.074;2023-11-19T00:42:24;99771.09;;;13.67;72.31
80938;BME280;70395;51.382;7.074;2023-11-19T00:44:51;99762.66;;;13.70;72.33
80938;BME280;70395;51.382;7.074;2023-11-19T00:47:17;99746.97;;;13.73;72.11
80938;BME280;70395;51.382;7.074;2023-11-19T00:49:49;99753.19;;;13.74;72.35
80938;BME280;70395;51.382;7.074;2023-11-19T00:52:16;99764.66;;;13.76;72.24
80938;BME280;70395;51.382;7.074;2023-11-19T00:54:43;99752.66;;;13.79;72.72
80938;BME280;70395;51.382;7.074;2023-11-19T00:57:09;99737.31;;;13.79;72.51
80938;BME280;70395;51.382;7.074;2023-11-19T00:59:35;99732.13;;;13.78;72.70
80938;BME280;70395;51.382;7.074;2023-11-19T01:02:01;99725.53;;;13.80;72.42
80938;BME280;70395;51.382;7.074;2023-11-19T01:04:35;99740.50;;;13.83;72.32
80938;BME280;70395;51.382;7.074;2023-11-19T01:07:02;99735.56;;;13.87;72.57
80938;BME280;70395;51.382;7.074;2023-11-19T01:09:34;99746.34;;;13.87;72.67
80938;BME280;70395;51.382;7.074;2023-11-19T01:12:02;99744.50;;;13.87;72.45
80938;BME280;70395;51.382;7.074;2023-11-19T01:14:28;99737.25;;;13.88;72.75
80938;BME280;70395;51.382;7.074;2023-11-19T01:16:54;99737.06;;;13.89;72.80
80938;BME280;70395;51.382;7.074;2023-11-19T01:19:24;99739.59;;;13.91;72.62
80938;BME280;70395;51.382;7.074;2023-11-19T01:21:50;99736.91;;;13.91;72.60
80938;BME280;70395;51.382;7.074;2023-11-19T01:24:16;99738.41;;;13.93;72.63
80938;BME280;70395;51.382;7.074;2023-11-19T01:26:44;99731.97;;;13.94;72.86
80938;BME280;70395;51.382;7.074;2023-11-19T01:29:15;99727.44;;;13.95;72.75
80938;BME280;70395;51.382;7.074;2023-11-19T01:31:42;99742.59;;;13.96;72.55
80938;BME280;70395;51.382;7.074;2023-11-19T01:34:08;99754.84;;;13.99;72.53
80938;BME280;70395;51.382;7.074;2023-11-19T01:36:35;99750.28;;;13.99;72.32
80938;BME280;70395;51.382;7.074;2023-11-19T01:39:01;99754.47;;;14.02;72.52
80938;BME280;70395;51.382;7.074;2023-11-19T01:41:27;99749.56;;;14.05;72.96
80938;BME280;70395;51.382;7.074;2023-11-19T01:43:52;99754.13;;;14.05;72.65
80938;BME280;70395;51.382;7.074;2023-11-19T01:46:20;99748.75;;;14.05;72.69
80938;BME280;70395;51.382;7.074;2023-11-19T01:48:46;99746.88;;;14.05;72.83
80938;BME280;70395;51.382;7.074;2023-11-19T01:51:13;99743.00;;;14.08;72.42
80938;BME280;70395;51.382;7.074;2023-11-19T01:53:43;99741.78;;;14.11;72.64
80938;BME280;70395;51.382;7.074;2023-11-19T01:56:11;99739.75;;;14.13;72.61
80938;BME280;70395;51.382;7.074;2023-11-19T01:58:40;99739.75;;;14.13;72.55
80938;BME280;70395;51.382;7.074;2023-11-19T02:01:07;99744.09;;;14.14;72.70
80938;BME280;70395;51.382;7.074;2023-11-19T02:03:34;99746.44;;;14.17;72.72
80938;BME280;70395;51.382;7.074;2023-11-19T02:06:00;99734.44;;;14.19;72.77
80938;BME280;70395;51.382;7.074;2023-11-19T02:08:26;99735.09;;;14.22;72.39
80938;BME280;70395;51.382;7.074;2023-11-19T02:10:53;99740.28;;;14.23;72.55
80938;BME280;70395;51.382;7.074;2023-11-19T02:13:22;99740.13;;;14.25;72.45
80938;BME280;70395;51.382;7.074;2023-11-19T02:15:48;99726.44;;;14.26;72.35
80938;BME280;70395;51.382;7.074;2023-11-19T02:18:27;99699.69;;;14.25;72.56
80938;BME280;70395;51.382;7.074;2023-11-19T02:20:58;99689.53;;;14.27;72.39
80938;BME280;70395;51.382;7.074;2023-11-19T02:23:27;99694.94;;;14.27;72.74
80938;BME280;70395;51.382;7.074;2023-11-19T02:26:03;99685.34;;;14.24;72.73
80938;BME280;70395;51.382;7.074;2023-11-19T02:28:33;99683.31;;;14.26;72.67
80938;BME280;70395;51.382;7.074;2023-11-19T02:30:59;99677.91;;;14.26;72.55
80938;BME280;70395;51.382;7.074;2023-11-19T02:33:25;99686.00;;;14.26;72.47
80938;BME280;70395;51.382;7.074;2023-11-19T02:35:51;99677.25;;;14.24;72.87
80938;BME280;70395;51.382;7.074;2023-11-19T02:38:17;99673.56;;;14.25;72.57
80938;BME280;70395;51.382;7.074;2023-11-19T02:40:42;99678.75;;;14.27;72.55
80938;BME280;70395;51.382;7.074;2023-11-19T02:43:08;99684.78;;;14.29;73.04
80938;BME280;70395;51.382;7.074;2023-11-19T02:45:34;99683.41;;;14.33;72.38
80938;BME280;70395;51.382;7.074;2023-11-19T02:48:01;99677.84;;;14.35;72.97
80938;BME280;70395;51.382;7.074;2023-11-19T02:50:27;99673.28;;;14.35;72.42
80938;BME280;70395;51.382;7.074;2023-11-19T02:52:55;99685.34;;;14.39;73.07
80938;BME280;70395;51.382;7.074;2023-11-19T02:55:23;99677.91;;;14.41;72.66
80938;BME280;70395;51.382;7.074;2023-11-19T02:57:51;99673.16;;;14.44;72.85
80938;BME280;70395;51.382;7.074;2023-11-19T03:00:20;99685.44;;;14.46;72.50
80938;BME280;70395;51.382;7.074;2023-11-19T03:02:51;99682.19;;;14.51;72.60
80938;BME280;70395;51.382;7.074;2023-11-19T03:05:35;99666.63;;;14.53;72.34
80938;BME280;70395;51.382;7.074;2023-11-19T03:08:01;99672.69;;;14.55;72.29
80938;BME280;70395;51.382;7.074;2023-11-19T03:10:28;99684.97;;;14.58;72.39
80938;BME280;70395;51.382;7.074;2023-11-19T03:12:54;99669.44;;;14.60;72.39
80938;BME280;70395;51.382;7.074;2023-11-19T03:15:22;99670.09;;;14.62;72.01
80938;BME280;70395;51.382;7.074;2023-11-19T03:17:48;99679.69;;;14.64;72.21
80938;BME280;70395;51.382;7.074;2023-11-19T03:20:14;99661.59;;;14.65;71.95
80938;BME280;70395;51.382;7.074;2023-11-19T03:22:43;99659.38;;;14.69;71.78
80938;BME280;70395;51.382;7.074;2023-11-19T03:25:10;99658.16;;;14.71;71.98
80938;BME280;70395;51.382;7.074;2023-11-19T03:27:39;99646.53;;;14.71;71.76
80938;BME280;70395;51.382;7.074;2023-11-19T03:30:10;99642.81;;;14.72;71.82
80938;BME280;70395;51.382;7.074;2023-11-19T03:32:36;99658.81;;;14.73;71.86
80938;BME280;70395;51.382;7.074;2023-11-19T03:35:05;99660.84;;;14.71;71.79
80938;BME280;70395;51.382;7.074;2023-11-19T03:37:32;99647.16;;;14.73;71.36
80938;BME280;70395;51.382;7.074;2023-11-19T03:39:59;99660.03;;;14.71;71.36
80938;BME280;70395;51.382;7.074;2023-11-19T03:42:26;99666.63;;;14.68;71.30
80938;BME280;70395;51.382;7.074;2023-11-19T03:44:53;99671.19;;;14.68;71.27
80938;BME280;70395;51.382;7.074;2023-11-19T03:47:20;99672.88;;;14.69;71.43
80938;BME280;70395;51.382;7.074;2023-11-19T03:49:52;99674.91;;;14.67;71.33
80938;BME280;70395;51.382;7.074;2023-11-19T03:52:18;99682.81;;;14.68;71.20
80938;BME280;70395;51.382;7.074;2023-11-19T03:54:45;99676.41;;;14.69;70.96
80938;BME280;70395;51.382;7.074;2023-11-19T03:57:12;99671.81;;;14.70;71.15
80938;BME280;70395;51.382;7.074;2023-11-19T03:59:39;99675.56;;;14.69;71.03
80938;BME280;70395;51.382;7.074;2023-11-19T04:02:05;99681.16;;;14.67;70.68
80938;BME280;70395;51.382;7.074;2023-11-19T04:04:32;99677.16;;;14.63;71.11
80938;BME280;70395;51.382;7.074;2023-11-19T04:06:59;99691.03;;;14.60;70.90
80938;BME280;70395;51.382;7.074;2023-11-19T04:09:26;99680.78;;;14.55;70.95
80938;BME280;70395;51.382;7.074;2023-11-19T04:11:52;99692.13;;;14.50;71.05
80938;BME280;70395;51.382;7.074;2023-11-19T04:14:18;99687.50;;;14.44;70.74
80938;BME280;70395;51.382;7.074;2023-11-19T04:16:46;99692.59;;;14.39;70.51
80938;BME280;70395;51.382;7.074;2023-11-19T04:19:12;99683.22;;;14.35;70.49
80938;BME280;70395;51.382;7.074;2023-11-19T04:21:41;99682.94;;;14.29;71.05
80938;BME280;70395;51.382;7.074;2023-11-19T04:24:11;99675.03;;;14.28;70.99
80938;BME280;70395;51.382;7.074;2023-11-19T04:26:46;99675.56;;;14.23;70.90
80938;BME280;70395;51.382;7.074;2023-11-19T04:29:13;99680.16;;;14.23;71.01
80938;BME280;70395;51.382;7.074;2023-11-19T04:31:41;99667.03;;;14.19;70.43
80938;BME280;70395;51.382;7.074;2023-11-19T04:34:07;99687.31;;;14.15;70.96
80938;BME280;70395;51.382;7.074;2023-11-19T04:36:34;99681.78;;;14.08;70.27
80938;BME280;70395;51.382;7.074;2023-11-19T04:39:00;99681.53;;;14.03;70.50
80938;BME280;70395;51.382;7.074;2023-11-19T04:41:27;99687.09;;;14.02;70.51
80938;BME280;70395;51.382;7.074;2023-11-19T04:43:54;99695.53;;;13.99;70.52
80938;BME280;70395;51.382;7.074;2023-11-19T04:46:19;99693.88;;;13.98;70.73
80938;BME280;70395;51.382;7.074;2023-11-19T04:48:45;99680.41;;;13.98;70.65
80938;BME280;70395;51.382;7.074;2023-11-19T04:51:11;99694.53;;;14.00;71.09
80938;BME280;70395;51.382;7.074;2023-11-19T04:53:37;99690.84;;;14.01;70.54
80938;BME280;70395;51.382;7.074;2023-11-19T04:56:10;99694.06;;;13.96;70.44
80938;BME280;70395;51.382;7.074;2023-11-19T04:58:36;99697.59;;;13.96;70.59
80938;BME280;70395;51.382;7.074;2023-11-19T05:01:03;99705.88;;;13.95;70.25
80938;BME280;70395;51.382;7.074;2023-11-19T05:03:31;99682.44;;;13.95;70.56
80938;BME280;70395;51.382;7.074;2023-11-19T05:05:57;99695.28;;;13.93;70.69
80938;BME280;70395;51.382;7.074;2023-11-19T05:08:23;99686.34;;;13.93;70.61
80938;BME280;70395;51.382;7.074;2023-11-19T05:10:49;99695.94;;;13.95;70.32
80938;BME280;70395;51.382;7.074;2023-11-19T05:13:15;99696.78;;;13.96;70.33
80938;BME280;70395;51.382;7.074;2023-11-19T05:15:42;99688.31;;;13.99;70.57
80938;BME280;70395;51.382;7.074;2023-11-19T05:18:08;99690.84;;;14.01;70.00
80938;BME280;70395;51.382;7.074;2023-11-19T05:20:34;99701.63;;;14.01;70.04
80938;BME280;70395;51.382;7.074;2023-11-19T05:23:00;99697.88;;;14.02;70.11
80938;BME280;70395;51.382;7.074;2023-11-19T05:25:27;99698.25;;;13.99;69.86
80938;BME280;70395;51.382;7.074;2023-11-19T05:27:53;99696.59;;;13.98;70.06
80938;BME280;70395;51.382;7.074;2023-11-19T05:30:19;99698.63;;;13.95;69.74
80938;BME280;70395;51.382;7.074;2023-11-19T05:32:45;99696.94;;;13.94;69.95
80938;BME280;70395;51.382;7.074;2023-11-19T05:35:11;99700.66;;;13.93;69.88
80938;BME280;70395;51.382;7.074;2023-11-19T05:37:37;99702.31;;;13.94;69.60
80938;BME280;70395;51.382;7.074;2023-11-19T05:40:05;99698.44;;;13.97;69.86
80938;BME280;70395;51.382;7.074;2023-11-19T05:42:38;99700.56;;;14.02;70.17
80938;BME280;70395;51.382;7.074;2023-11-19T05:45:06;99703.09;;;14.03;69.65
80938;BME280;70395;51.382;7.074;2023-11-19T05:47:33;99697.31;;;14.06;69.43
80938;BME280;70395;51.382;7.074;2023-11-19T05:49:59;99705.91;;;14.10;69.73
80938;BME280;70395;51.382;7.074;2023-11-19T05:52:25;99696.97;;;14.10;69.20
80938;BME280;70395;51.382;7.074;2023-11-19T05:54:51;99717.69;;;14.09;69.46
80938;BME280;70395;51.382;7.074;2023-11-19T05:57:19;99719.38;;;14.10;69.27
80938;BME280;70395;51.382;7.074;2023-11-19T05:59:49;99715.84;;;14.10;68.78
80938;BME280;70395;51.382;7.074;2023-11-19T06:02:15;99708.75;;;14.08;68.77
80938;BME280;70395;51.382;7.074;2023-11-19T06:04:41;99699.00;;;14.07;68.43
80938;BME280;70395;51.382;7.074;2023-11-19T06:07:10;99707.94;;;14.08;68.50
80938;BME280;70395;51.382;7.074;2023-11-19T06:09:35;99713.13;;;14.10;68.63
80938;BME280;70395;51.382;7.074;2023-11-19T06:12:01;99710.44;;;14.10;68.65
80938;BME280;70395;51.382;7.074;2023-11-19T06:14:31;99713.78;;;14.12;68.31
80938;BME280;70395;51.382;7.074;2023-11-19T06:16:57;99717.31;;;14.12;68.12
80938;BME280;70395;51.382;7.074;2023-11-19T06:19:23;99710.09;;;14.13;68.21
80938;BME280;70395;51.382;7.074;2023-11-19T06:21:50;99704.69;;;14.13;68.14
80938;BME280;70395;51.382;7.074;2023-11-19T06:24:16;99723.56;;;14.13;67.77
80938;BME280;70395;51.382;7.074;2023-11-19T06:26:42;99727.06;;;14.13;68.32
80938;BME280;70395;51.382;7.074;2023-11-19T06:29:08;99729.78;;;14.13;67.90
80938;BME280;70395;51.382;7.074;2023-11-19T06:31:34;99709.44;;;14.11;67.73
80938;BME280;70395;51.382;7.074;2023-11-19T06:34:00;99702.34;;;14.10;67.51
80938;BME280;70395;51.382;7.074;2023-11-19T06:36:26;99711.19;;;14.03;67.25
80938;BME280;70395;51.382;7.074;2023-11-19T06:38:52;99719.78;;;13.99;67.29
80938;BME280;70395;51.382;7.074;2023-11-19T06:41:18;99716.00;;;13.93;67.10
80938;BME280;70395;51.382;7.074;2023-11-19T06:43:44;99710.31;;;13.88;66.69
80938;BME280;70395;51.382;7.074;2023-11-19T06:46:17;99714.56;;;13.82;66.88
80938;BME280;70395;51.382;7.074;2023-11-19T06:48:43;99724.69;;;13.80;66.60
80938;BME280;70395;51.382;7.074;2023-11-19T06:51:11;99731.28;;;13.77;66.69
80938;BME280;70395;51.382;7.074;2023-11-19T06:53:36;99738.91;;;13.73;66.73
80938;BME280;70395;51.382;7.074;2023-11-19T06:56:03;99739.06;;;13.72;66.86
80938;BME280;70395;51.382;7.074;2023-11-19T06:58:35;99726.50;;;13.64;66.49
80938;BME280;70395;51.382;7.074;2023-11-19T07:01:01;99736.81;;;13.60;66.61
80938;BME280;70395;51.382;7.074;2023-11-19T07:03:27;99755.31;;;13.55;66.71
80938;BME280;70395;51.382;7.074;2023-11-19T07:05:53;99751.13;;;13.52;66.90
80938;BME280;70395;51.382;7.074;2023-11-19T07:08:19;99747.13;;;13.48;66.83
80938;BME280;70395;51.382;7.074;2023-11-19T07:10:45;99753.69;;;13.46;66.92
80938;BME280;70395;51.382;7.074;2023-11-19T07:13:12;99749.69;;;13.42;66.95
80938;BME280;70395;51.382;7.074;2023-11-19T07:15:38;99734.72;;;13.39;67.32
80938;BME280;70395;51.382;7.074;2023-11-19T07:18:04;99761.00;;;13.37;67.06
80938;BME280;70395;51.382;7.074;2023-11-19T07:20:30;99749.56;;;13.35;66.72
80938;BME280;70395;51.382;7.074;2023-11-19T07:22:56;99760.69;;;13.32;66.62
80938;BME280;70395;51.382;7.074;2023-11-19T07:25:22;99754.66;;;13.29;66.54
80938;BME280;70395;51.382;7.074;2023-11-19T07:27:49;99755.66;;;13.28;66.86
80938;BME280;70395;51.382;7.074;2023-11-19T07:30:14;99759.53;;;13.26;66.82
80938;BME280;70395;51.382;7.074;2023-11-19T07:32:40;99754.34;;;13.24;66.78
80938;BME280;70395;51.382;7.074;2023-11-19T07:35:06;99762.59;;;13.23;66.59
80938;BME280;70395;51.382;7.074;2023-11-19T07:37:32;99760.72;;;13.23;66.70
80938;BME280;70395;51.382;7.074;2023-11-19T07:39:58;99751.00;;;13.22;66.69
80938;BME280;70395;51.382;7.074;2023-11-19T07:42:24;99759.88;;;13.23;66.64
80938;BME280;70395;51.382;7.074;2023-11-19T07:44:50;99772.53;;;13.22;66.34
80938;BME280;70395;51.382;7.074;2023-11-19T07:47:16;99778.72;;;13.23;66.42
80938;BME280;70395;51.382;7.074;2023-11-19T07:49:42;99792.03;;;13.24;66.35
80938;BME280;70395;51.382;7.074;2023-11-19T07:52:09;99788.97;;;13.27;66.31
80938;BME280;70395;51.382;7.074;2023-11-19T07:54:35;99795.84;;;13.30;65.84
80938;BME280;70395;51.382;7.074;2023-11-19T07:57:01;99791.97;;;13.33;66.25
80938;BME280;70395;51.382;7.074;2023-11-19T07:59:27;99802.22;;;13.37;66.01
80938;BME280;70395;51.382;7.074;2023-11-19T08:01:52;99801.03;;;13.40;66.06
80938;BME280;70395;51.382;7.074;2023-11-19T08:04:18;99805.88;;;13.45;65.81
80938;BME280;70395;51.382;7.074;2023-11-19T08:06:44;99810.91;;;13.48;65.88
80938;BME280;70395;51.382;7.074;2023-11-19T08:09:11;99807.53;;;13.54;66.16
80938;BME280;70395;51.382;7.074;2023-11-19T08:11:42;99811.56;;;13.58;65.71
80938;BME280;70395;51.382;7.074;2023-11-19T08:14:08;99811.03;;;13.63;65.63
80938;BME280;70395;51.382;7.074;2023-11-19T08:16:34;99817.38;;;13.70;65.22
80938;BME280;70395;51.382;7.074;2023-11-19T08:18:59;99810.63;;;13.74;65.16
80938;BME280;70395;51.382;7.074;2023-11-19T08:21:25;99826.91;;;13.81;64.65
80938;BME280;70395;51.382;7.074;2023-11-19T08:23:52;99828.22;;;13.85;65.12
80938;BME280;70395;51.382;7.074;2023-11-19T08:26:18;99839.31;;;13.91;64.48
80938;BME280;70395;51.382;7.074;2023-11-19T08:28:44;99845.66;;;13.98;64.60
80938;BME280;70395;51.382;7.074;2023-11-19T08:31:10;99834.34;;;14.03;64.59
80938;BME280;70395;51.382;7.074;2023-11-19T08:33:36;99830.06;;;14.08;64.41
80938;BME280;70395;51.382;7.074;2023-11-19T08:36:02;99821.28;;;14.15;63.95
80938;BME280;70395;51.382;7.074;2023-11-19T08:38:29;99819.72;;;14.21;63.95
80938;BME280;70395;51.382;7.074;2023-11-19T08:40:55;99826.78;;;14.22;63.64
80938;BME280;70395;51.382;7.074;2023-11-19T08:43:29;99820.53;;;14.21;63.94
80938;BME280;70395;51.382;7.074;2023-11-19T08:45:56;99823.22;;;14.21;63.77
80938;BME280;70395;51.382;7.074;2023-11-19T08:48:22;99823.41;;;14.19;63.64
80938;BME280;70395;51.382;7.074;2023-11-19T08:50:48;99816.09;;;14.28;63.77
80938;BME280;70395;51.382;7.074;2023-11-19T08:53:13;99820.22;;;14.39;63.75
80938;BME280;70395;51.382;7.074;2023-11-19T08:55:39;99817.97;;;14.43;63.34
80938;BME280;70395;51.382;7.074;2023-11-19T08:58:05;99821.88;;;14.40;63.06
80938;BME280;70395;51.382;7.074;2023-11-19T09:00:31;99823.56;;;14.41;63.43
80938;BME280;70395;51.382;7.074;2023-11-19T09:02:58;99820.03;;;14.41;62.95
80938;BME280;70395;51.382;7.074;2023-11-19T09:05:24;99829.59;;;14.44;62.71
80938;BME280;70395;51.382;7.074;2023-11-19T09:07:50;99834.34;;;14.41;63.23
80938;BME280;70395;51.382;7.074;2023-11-19T09:10:16;99827.75;;;14.44;63.26
80938;BME280;70395;51.382;7.074;2023-11-19T09:12:42;99831.75;;;14.48;63.30
80938;BME280;70395;51.382;7.074;2023-11-19T09:15:08;99839.50;;;14.51;62.94
80938;BME280;70395;51.382;7.074;2023-11-19T09:17:36;99832.03;;;14.53;62.90
80938;BME280;70395;51.382;7.074;2023-11-19T09:20:02;99841.72;;;14.63;62.56
80938;BME280;70395;51.382;7.074;2023-11-19T09:22:28;99838.97;;;14.71;62.49
80938;BME280;70395;51.382;7.074;2023-11-19T09:24:54;99832.44;;;14.81;62.64
80938;BME280;70395;51.382;7.074;2023-11-19T09:27:20;99835.47;;;14.86;62.26
80938;BME280;70395;51.382;7.074;2023-11-19T09:29:46;99823.47;;;14.89;61.44
80938;BME280;70395;51.382;7.074;2023-11-19T09:32:14;99830.78;;;14.95;61.66
80938;BME280;70395;51.382;7.074;2023-11-19T09:34:40;99833.59;;;15.02;61.59
80938;BME280;70395;51.382;7.074;2023-11-19T09:37:06;99826.88;;;15.13;61.82
80938;BME280;70395;51.382;7.074;2023-11-19T09:39:31;99840.09;;;15.23;61.37
80938;BME280;70395;51.382;7.074;2023-11-19T09:41:57;99826.41;;;15.24;61.46
80938;BME280;70395;51.382;7.074;2023-11-19T09:44:24;99827.59;;;15.22;61.12
80938;BME280;70395;51.382;7.074;2023-11-19T09:46:51;99827.16;;;15.18;61.01
80938;BME280;70395;51.382;7.074;2023-11-19T09:49:21;99830.22;;;15.15;61.08
80938;BME280;70395;51.382;7.074;2023-11-19T09:51:50;99830.22;;;15.15;61.35
80938;BME280;70395;51.382;7.074;2023-11-19T09:54:15;99843.09;;;15.13;60.65
80938;BME280;70395;51.382;7.074;2023-11-19T09:56:41;99828.09;;;15.10;60.63
80938;BME280;70395;51.382;7.074;2023-11-19T09:59:08;99829.78;;;15.11;60.79
80938;BME280;70395;51.382;7.074;2023-11-19T10:01:38;99821.28;;;15.14;60.26
80938;BME280;70395;51.382;7.074;2023-11-19T10:04:06;99830.59;;;15.12;60.47
80938;BME280;70395;51.382;7.074;2023-11-19T10:06:32;99844.00;;;15.05;60.61
80938;BME280;70395;51.382;7.074;2023-11-19T10:08:58;99828.38;;;15.00;60.21
80938;BME280;70395;51.382;7.074;2023-11-19T10:11:25;99828.09;;;14.95;59.97
80938;BME280;70395;51.382;7.074;2023-11-19T10:13:53;99818.06;;;14.89;60.53
80938;BME280;70395;51.382;7.074;2023-11-19T10:16:19;99825.31;;;14.88;60.63
80938;BME280;70395;51.382;7.074;2023-11-19T10:18:49;99817.69;;;14.92;60.42
80938;BME280;70395;51.382;7.074;2023-11-19T10:21:18;99810.13;;;15.02;60.79
80938;BME280;70395;51.382;7.074;2023-11-19T10:23:57;99823.06;;;15.07;60.28
80938;BME280;70395;51.382;7.074;2023-11-19T10:26:26;99816.72;;;15.15;60.57
80938;BME280;70395;51.382;7.074;2023-11-19T10:28:53;99815.50;;;15.17;60.33
80938;BME280;70395;51.382;7.074;2023-11-19T10:31:20;99815.88;;;15.14;59.96
80938;BME280;70395;51.382;7.074;2023-11-19T10:33:55;99823.34;;;15.12;59.97
80938;BME280;70395;51.382;7.074;2023-11-19T10:36:22;99821.19;;;15.07;59.95
80938;BME280;70395;51.382;7.074;2023-11-19T10:38:56;99809.97;;;15.04;60.33
80938;BME280;70395;51.382;7.074;2023-11-19T10:41:30;99813.94;;;15.08;59.79
80938;BME280;70395;51.382;7.074;2023-11-19T10:43:57;99805.94;;;15.15;60.32
80938;BME280;70395;51.382;7.074;2023-11-19T10:46:36;99810.41;;;15.07;59.55
80938;BME280;70395;51.382;7.074;2023-11-19T10:49:03;99813.59;;;15.11;59.93
80938;BME280;70395;51.382;7.074;2023-11-19T10:51:29;99812.75;;;15.11;59.29
80938;BME280;70395;51.382;7.074;2023-11-19T10:54:02;99809.38;;;15.08;59.62
80938;BME280;70395;51.382;7.074;2023-11-19T10:56:33;99802.59;;;15.13;59.87
80938;BME280;70395;51.382;7.074;2023-11-19T10:59:00;99813.19;;;15.14;59.66
80938;BME280;70395;51.382;7.074;2023-11-19T11:01:48;99811.91;;;15.10;59.52
80938;BME280;70395;51.382;7.074;2023-11-19T11:04:23;99800.91;;;15.12;59.42
80938;BME280;70395;51.382;7.074;2023-11-19T11:06:51;99808.63;;;15.15;59.24
80938;BME280;70395;51.382;7.074;2023-11-19T11:09:20;99806.84;;;15.22;59.06
80938;BME280;70395;51.382;7.074;2023-11-19T11:11:47;99795.81;;;15.39;59.44
80938;BME280;70395;51.382;7.074;2023-11-19T11:14:14;99800.34;;;15.53;58.77
80938;BME280;70395;51.382;7.074;2023-11-19T11:16:43;99797.59;;;15.69;58.66
80938;BME280;70395;51.382;7.074;2023-11-19T11:19:10;99803.06;;;15.75;58.79
80938;BME280;70395;51.382;7.074;2023-11-19T11:21:40;99799.53;;;15.75;57.79
80938;BME280;70395;51.382;7.074;2023-11-19T11:30:35;99803.84;;;15.69;57.13
80938;BME280;70395;51.382;7.074;2023-11-19T11:33:41;99810.94;;;15.70;57.37
80938;BME280;70395;51.382;7.074;2023-11-19T11:36:21;99800.28;;;15.69;57.21
80938;BME280;70395;51.382;7.074;2023-11-19T11:38:51;99789.47;;;15.69;56.65
80938;BME280;70395;51.382;7.074;2023-11-19T11:41:22;99794.56;;;15.79;56.46
80938;BME280;70395;51.382;7.074;2023-11-19T11:43:53;99779.66;;;16.05;56.29
80938;BME280;70395;51.382;7.074;2023-11-19T11:49:06;99773.66;;;16.09;55.81
80938;BME280;70395;51.382;7.074;2023-11-19T11:57:03;99763.44;;;16.05;55.96
80938;BME280;70395;51.382;7.074;2023-11-19T11:59:48;99768.75;;;15.98;56.24
80938;BME280;70395;51.382;7.074;2023-11-19T12:02:21;99769.16;;;15.95;55.96
80938;BME280;70395;51.382;7.074;2023-11-19T12:04:50;99767.47;;;15.94;55.34
80938;BME280;70395;51.382;7.074;2023-11-19T12:07:22;99760.97;;;15.88;55.44
80938;BME280;70395;51.382;7.074;2023-11-19T12:10:09;99757.56;;;15.79;55.29
80938;BME280;70395;51.382;7.074;2023-11-19T12:12:37;99763.09;;;15.93;55.41
80938;BME280;70395;51.382;7.074;2023-11-19T12:15:08;99747.25;;;16.12;55.62
80938;BME280;70395;51.382;7.074;2023-11-19T12:17:42;99758.97;;;16.19;55.13
80938;BME280;70395;51.382;7.074;2023-11-19T12:20:10;99755.47;;;16.25;55.33
80938;BME280;70395;51.382;7.074;2023-11-19T12:22:41;99750.47;;;16.22;54.80
80938;BME280;70395;51.382;7.074;2023-11-19T12:25:09;99754.19;;;16.21;54.45
80938;BME280;70395;51.382;7.074;2023-11-19T12:27:37;99752.34;;;16.21;54.90
80938;BME280;70395;51.382;7.074;2023-11-19T12:30:05;99750.06;;;16.25;54.76
80938;BME280;70395;51.382;7.074;2023-11-19T12:32:45;99744.47;;;16.27;54.98
80938;BME280;70395;51.382;7.074;2023-11-19T12:35:12;99730.38;;;16.38;54.51
80938;BME280;70395;51.382;7.074;2023-11-19T12:37:45;99741.25;;;16.45;54.08
80938;BME280;70395;51.382;7.074;2023-11-19T12:40:23;99725.63;;;16.47;54.68
80938;BME280;70395;51.382;7.074;2023-11-19T12:42:52;99720.03;;;16.49;54.78
80938;BME280;70395;51.382;7.074;2023-11-19T12:45:19;99724.38;;;16.43;54.60
80938;BME280;70395;51.382;7.074;2023-11-19T12:47:46;99718.28;;;16.34;54.29
80938;BME280;70395;51.382;7.074;2023-11-19T12:50:13;99717.16;;;16.21;54.09
80938;BME280;70395;51.382;7.074;2023-11-19T12:52:40;99721.25;;;16.10;54.49
80938;BME280;70395;51.382;7.074;2023-11-19T12:57:55;99718.16;;;15.92;54.65
80938;BME280;70395;51.382;7.074;2023-11-19T13:00:23;99733.03;;;15.81;54.86
80938;BME280;70395;51.382;7.074;2023-11-19T13:02:55;99731.88;;;15.68;55.25
80938;BME280;70395;51.382;7.074;2023-11-19T13:05:33;99736.97;;;15.56;55.84
80938;BME280;70395;51.382;7.074;2023-11-19T13:08:08;99746.06;;;15.48;56.16
80938;BME280;70395;51.382;7.074;2023-11-19T13:13:21;99756.28;;;15.31;57.64
80938;BME280;70395;51.382;7.074;2023-11-19T13:15:47;99760.94;;;15.22;57.60
80938;BME280;70395;51.382;7.074;2023-11-19T13:18:16;99752.84;;;15.07;57.35
80938;BME280;70395;51.382;7.074;2023-11-19T13:20:42;99766.56;;;14.90;58.13
80938;BME280;70395;51.382;7.074;2023-11-19T13:23:09;99749.06;;;14.71;59.00